Forside
METAR-TAF:

METAR-TAF

Lufthavne :

Flughafen Sylt

Vesterland, Tyskland

Breddekreds: 54-55N, længdekreds: 008-21E, højde: 16 m

Aktuelle vejr

Denne rapport blev lavet for 8 timer og 19 minutter siden, kl. 18:50 UTC
Vind 19 kt fra vest
Temperatur 12°C
Fugtighed 76%
Tryk 1023 hPa
Sigt 10 km eller mere
Nogle få skyer i en højde af 2600 ft
Spredte skyer i en højde af 4400 ft

METAR: EDXW 241850Z 28019KT 9999 FEW026 SCT044 12/08 Q1023

Tid: 05:09 (03:09 UTC)

Vejrudsigter

Denne rapport blev lavet for 10 timer og 9 minutter siden, kl. 17:00 UTC
Foreløbig gælder fra 24 på 18 UTC til 24 på 21 UTC
Vind 15 kt fra vest med vindstød på up til 25 kt
Sigt 10 km eller mere
Brudte skyer i en højde af 3000 ft
Midlertidig
fra 24 på 18 UTC til 24 på 21 UTC
Vind 20 kt fra vestnordvest med vindstød på up til 30 kt

TAF: EDXW 241700Z 2418/2421 28015G25KT 9999 BKN030 TEMPO 2418/2421 29020G30KT

Vejrobservationer og prognoser fra mere end 4000 lufthavne (METAR og TAF).

De gule og røde prikker repræsenterer de meteorologiske stationer.

Flyt musen over at se navnet på stationen.

Så klik over at se vejr observationer og prognoser.

At skifte det kort: Klik på de grønne knapper med et sort kors for at zoome ind; på den grønne knap med en bindestreg for at zoome ud; eller på de grønne pile for tilstødende kort.


METAR-TAF: